Aviation Digital Data Service (ADDS)

Output produced by METARs form (1716 UTC 24 June 2019)
found at http://www.aviationweather.gov/metar/data/
 
Forecast for: UHPP (PETROPAVLOVSK-KA, RU)
Text: TAF UHPP 241346Z 2415/2521 18003G12MPS 9999 SCT025CB OVC060
Forecast period: 1500 UTC 24 June 2019 to 2100 UTC 25 June 2019
Forecast type: FROM: standard forecast or significant change
Winds: from the S (180 degrees) at 7 MPH (6 knots; 3.1 m/s)
gusting to 26 MPH (23 knots; 11.8 m/s)
Visibility: 6 or more miles 10+ km)
Ceiling: 6000 feet AGL
Clouds: scattered clouds at 2500 feet AGL
overcast cloud deck at 6000 feet AGL
Weather: no significant weather forecast for this period
Text: TEMPO 2415/2422 0900 SHRA FG VV003
Forecast period: 1500 to 2200 UTC 24 June 2019
Forecast type: TEMPORARY: The following changes expected for less than half the time period
Visibility: 0.56 miles (0.90 km)
Ceiling: indefinite ceiling with vertical visibility of 300 feet AGL
Clouds: obscured sky
Weather: SHRA FG  (rain showers, fog)
Text: TEMPO 2422/2509 3100 -SHRA BR BKN005 OVC015CB
Forecast period: 2200 UTC 24 June 2019 to 0900 UTC 25 June 2019
Forecast type: TEMPORARY: The following changes expected for less than half the time period
Visibility: 1.93 miles (3.11 km)
Ceiling: 500 feet AGL
Clouds: broken clouds at 500 feet AGL
overcast cloud deck at 1500 feet AGL
Weather: -SHRA BR  (light rain showers, mist)